createdAt,value
2017-06-08T04:46:16.343Z,80.47
2017-06-08T04:46:41.921Z,80.38
2017-06-08T04:47:07.287Z,80.28
2017-06-08T04:47:32.745Z,80.66
2017-06-08T04:47:58.214Z,80.85
2017-06-08T04:48:23.677Z,80.76
2017-06-08T04:48:49.148Z,80.95
2017-06-08T04:49:14.603Z,80.95
2017-06-08T04:49:40.095Z,81.24
2017-06-08T04:50:05.546Z,81.52
2017-06-08T04:50:31.018Z,81.43
2017-06-08T04:50:56.466Z,81.71
2017-06-08T04:51:21.942Z,82.19
2017-06-08T04:51:47.396Z,82.19
2017-06-08T04:52:12.883Z,82.67
2017-06-08T04:52:38.379Z,82.67
2017-06-08T04:53:03.857Z,82.67
2017-06-08T04:53:29.356Z,82.57
2017-06-08T04:53:54.869Z,82.67
2017-06-08T04:54:20.343Z,82.57
2017-06-08T04:54:45.810Z,82.86
2017-06-08T04:55:11.340Z,82.95
2017-06-08T04:55:36.820Z,82.76
2017-06-08T04:56:02.314Z,83.05
2017-06-08T04:56:27.768Z,83.43
2017-06-08T04:56:53.239Z,83.62
2017-06-08T04:57:18.728Z,83.62
2017-06-08T04:57:44.175Z,83.53
2017-06-08T04:58:09.627Z,83.72
2017-06-08T04:58:35.088Z,84
2017-06-08T04:59:00.593Z,83.62
2017-06-08T04:59:26.060Z,83.91
2017-06-08T04:59:51.570Z,84
2017-06-08T05:00:17.031Z,84
2017-06-08T05:00:42.517Z,83.81
2017-06-08T05:01:08.001Z,84.29
2017-06-08T05:01:33.470Z,84.2
2017-06-08T05:01:58.934Z,84.2
2017-06-08T05:02:24.392Z,84.29
2017-06-08T05:02:49.865Z,84.67
2017-06-08T05:03:15.371Z,84.48
2017-06-08T05:03:40.820Z,84.96
2017-06-08T05:04:06.297Z,84.96
2017-06-08T05:04:31.761Z,84.67
2017-06-08T05:04:57.228Z,85.25
2017-06-08T05:05:22.695Z,85.05
2017-06-08T05:05:48.184Z,85.05
2017-06-08T05:06:13.625Z,84.96
2017-06-08T05:06:39.115Z,84.96
2017-06-08T05:07:04.589Z,85.25
2017-06-08T05:07:30.041Z,85.63
2017-06-08T05:07:55.510Z,85.34
2017-06-08T05:08:20.981Z,85.72
2017-06-08T05:08:46.423Z,85.72
2017-06-08T05:09:11.907Z,85.72
2017-06-08T05:09:37.389Z,85.72
2017-06-08T05:10:02.870Z,85.72
2017-06-08T05:10:28.342Z,85.63
2017-06-08T05:10:53.808Z,86.2
2017-06-08T05:11:19.260Z,86.01
2017-06-08T05:11:44.747Z,86.01
2017-06-08T05:12:10.202Z,86.2
2017-06-08T05:12:35.663Z,86.01
2017-06-08T05:13:01.146Z,86.3
2017-06-08T05:13:26.600Z,86.3
2017-06-08T05:13:52.065Z,86.1
2017-06-08T05:14:17.561Z,86.3
2017-06-08T05:14:43.014Z,86.2
2017-06-08T05:15:08.486Z,85.91
2017-06-08T05:15:33.964Z,86.1
2017-06-08T05:15:59.449Z,86.2
2017-06-08T05:16:24.933Z,86.1
2017-06-08T05:16:50.374Z,86.68
2017-06-08T05:17:15.894Z,86.49
2017-06-08T05:17:41.377Z,86.3
2017-06-08T05:18:06.832Z,86.1
2017-06-08T05:18:32.299Z,86.2
2017-06-08T05:18:57.764Z,86.49
2017-06-08T05:19:23.258Z,86.2
2017-06-08T05:19:48.695Z,86.39
2017-06-08T05:20:14.140Z,86.2
2017-06-08T05:20:39.617Z,86.2
2017-06-08T05:21:05.077Z,86.1
2017-06-08T05:21:30.533Z,86.2
2017-06-08T05:21:55.989Z,86.2
2017-06-08T05:22:21.478Z,86.49
2017-06-08T05:22:46.939Z,86.68
2017-06-08T05:23:12.406Z,86.39
2017-06-08T05:23:37.869Z,86.3
2017-06-08T05:24:03.335Z,86.58
2017-06-08T05:24:28.811Z,86.58
2017-06-08T05:24:54.466Z,86.49
2017-06-08T05:25:19.865Z,86.3
2017-06-08T05:25:45.326Z,86.49
2017-06-08T05:26:10.796Z,86.34
2017-06-08T05:26:36.248Z,86.49
2017-06-08T05:27:01.710Z,86.39
2017-06-08T05:27:27.182Z,86.3
2017-06-08T05:27:52.674Z,86.2
2017-06-08T05:28:18.138Z,86.3
2017-06-08T05:28:43.603Z,86.39
2017-06-08T05:29:09.072Z,86.49
2017-06-08T05:29:34.541Z,86.2
2017-06-08T05:30:00.033Z,86.68
2017-06-08T05:30:25.495Z,86.24
2017-06-08T05:30:50.964Z,86.77
2017-06-08T05:31:16.453Z,86.49
2017-06-08T05:31:42.018Z,86.39
2017-06-08T05:32:07.619Z,86.3
2017-06-08T05:32:32.976Z,86.1
2017-06-08T05:32:58.456Z,86.2
2017-06-08T05:33:23.930Z,86.77
2017-06-08T05:33:49.360Z,86.96
2017-06-08T05:34:14.819Z,86.87
2017-06-08T05:34:40.275Z,86.82
2017-06-08T05:35:05.762Z,86.87
2017-06-08T05:35:31.244Z,86.72
2017-06-08T05:35:56.673Z,86.34
2017-06-08T05:36:22.138Z,86.24
2017-06-08T05:36:47.638Z,86.53
2017-06-08T05:37:13.051Z,86.53
2017-06-08T05:37:38.535Z,86.34
2017-06-08T05:38:04.029Z,86.53
2017-06-08T05:38:29.500Z,86.24
2017-06-08T05:38:54.981Z,86.24
2017-06-08T05:39:20.478Z,86.15
2017-06-08T05:39:45.910Z,86.34
2017-06-08T05:40:11.383Z,86.24
2017-06-08T05:40:36.841Z,86.34
2017-06-08T05:41:02.314Z,86.43
2017-06-08T05:41:27.774Z,86.34
2017-06-08T05:41:53.270Z,86.15
2017-06-08T05:42:18.751Z,86.34
2017-06-08T05:42:44.223Z,86.43
2017-06-08T05:43:09.695Z,85.96
2017-06-08T05:43:35.162Z,86.15
2017-06-08T05:44:00.631Z,86.15
2017-06-08T05:44:26.087Z,86.15
2017-06-08T05:44:51.554Z,86.05
2017-06-08T05:45:17.048Z,86.34
2017-06-08T05:45:42.476Z,85.77
2017-06-08T05:46:07.952Z,86.24
2017-06-08T05:46:33.483Z,86.05
2017-06-08T05:46:58.935Z,86.34
2017-06-08T05:47:24.417Z,86.15
2017-06-08T05:47:49.889Z,85.48
2017-06-08T05:48:15.356Z,85.58
2017-06-08T05:48:40.808Z,85.77
2017-06-08T05:49:06.266Z,85.77
2017-06-08T05:49:31.733Z,85.67
2017-06-08T05:49:57.263Z,85.38
2017-06-08T05:50:22.686Z,85.58
2017-06-08T05:50:48.144Z,85.48
2017-06-08T05:51:13.704Z,85.58
2017-06-08T05:51:39.172Z,85.38
2017-06-08T05:52:04.651Z,85.58
2017-06-08T05:52:30.164Z,85.29
2017-06-08T05:52:55.579Z,85.38
2017-06-08T05:53:21.068Z,85.67
2017-06-08T05:53:46.514Z,85
2017-06-08T05:54:11.998Z,85.19
2017-06-08T05:54:37.472Z,85.1
2017-06-08T05:55:02.944Z,85.1
2017-06-08T05:55:28.415Z,85.48
2017-06-08T05:55:53.884Z,85.19
2017-06-08T05:56:19.377Z,85
2017-06-08T05:56:44.827Z,84.95
2017-06-08T05:57:10.300Z,85.1
2017-06-08T05:57:35.779Z,85
2017-06-08T05:58:01.242Z,85.1
2017-06-08T05:58:26.735Z,85.19
2017-06-08T05:58:52.194Z,85.19
2017-06-08T05:59:17.697Z,84.95
2017-06-08T05:59:43.129Z,85.14
2017-06-08T06:00:08.577Z,85.14
2017-06-08T06:00:34.076Z,84.85
2017-06-08T06:00:59.552Z,85.14
2017-06-08T06:01:25.057Z,84.85
2017-06-08T06:01:50.493Z,84.95
2017-06-08T06:02:15.938Z,84.95
2017-06-08T06:02:41.426Z,84.76
2017-06-08T06:03:06.883Z,84.76
2017-06-08T06:03:32.380Z,85.05
2017-06-08T06:03:57.851Z,84.47
2017-06-08T06:04:23.303Z,84.85
2017-06-08T06:04:48.790Z,84.56
2017-06-08T06:05:14.274Z,84.56
2017-06-08T06:05:39.747Z,83.99
2017-06-08T06:06:05.209Z,84.47
2017-06-08T06:06:30.668Z,84.56
2017-06-08T06:06:56.136Z,84.28
2017-06-08T06:07:21.570Z,84.47
2017-06-08T06:07:47.044Z,83.99
2017-06-08T06:08:12.474Z,84.47
2017-06-08T06:08:37.931Z,83.8
2017-06-08T06:09:03.428Z,83.99
2017-06-08T06:09:28.904Z,84.19
2017-06-08T06:09:54.345Z,84.09
2017-06-08T06:10:19.817Z,84.09
2017-06-08T06:10:45.267Z,83.8
2017-06-08T06:11:10.738Z,83.65
2017-06-08T06:11:36.183Z,83.75
2017-06-08T06:12:01.664Z,83.56
2017-06-08T06:12:27.138Z,83.27
2017-06-08T06:12:52.595Z,83.37
2017-06-08T06:13:18.465Z,83.46
2017-06-08T06:13:43.908Z,83.37
2017-06-08T06:14:09.419Z,83.17
2017-06-08T06:14:34.838Z,83.17
2017-06-08T06:15:00.345Z,83.17
2017-06-08T06:15:25.773Z,82.98
2017-06-08T06:15:51.245Z,82.22
2017-06-08T06:16:16.737Z,82.79
2017-06-08T06:16:42.210Z,82.6
2017-06-08T06:17:07.647Z,82.6
2017-06-08T06:17:33.124Z,82.7
2017-06-08T06:17:58.580Z,82.41
2017-06-08T06:18:24.057Z,82.41
2017-06-08T06:18:49.557Z,82.35
2017-06-08T06:19:14.993Z,82.31
2017-06-08T06:19:40.523Z,82.17
2017-06-08T06:20:05.901Z,82.17
2017-06-08T06:20:31.400Z,82.17
2017-06-08T06:20:56.847Z,81.78
2017-06-08T06:21:22.298Z,82.07
2017-06-08T06:21:47.771Z,81.4
2017-06-08T06:22:13.233Z,81.4
2017-06-08T06:22:38.722Z,81.21
2017-06-08T06:23:04.208Z,81.11
2017-06-08T06:23:29.669Z,81.21
2017-06-08T06:23:55.163Z,80.54
2017-06-08T06:24:20.619Z,80.44
2017-06-08T06:24:46.067Z,80.54
2017-06-08T06:25:11.565Z,80.54
2017-06-08T06:25:37.098Z,80.06
2017-06-08T06:26:02.546Z,80.16
2017-06-08T06:26:28.008Z,80.06
2017-06-08T06:26:53.458Z,79.96
2017-06-08T06:27:18.918Z,80.06
2017-06-08T06:27:44.399Z,80.06
2017-06-08T06:28:09.903Z,79.96
2017-06-08T06:28:35.388Z,79.96
2017-06-08T06:29:00.833Z,79.87
2017-06-08T06:29:26.305Z,79.87
2017-06-08T06:29:51.796Z,80.16
2017-06-08T06:30:17.260Z,80.35
2017-06-08T06:30:42.744Z,80.25
2017-06-08T06:31:08.191Z,80.73
2017-06-08T06:31:33.652Z,80.44
2017-06-08T06:31:59.127Z,79.87
2017-06-08T06:32:24.561Z,79.77
2017-06-08T06:32:50.046Z,79.77
2017-06-08T06:33:15.514Z,79.2
2017-06-08T06:33:40.981Z,79.58
2017-06-08T06:34:06.478Z,79.87
2017-06-08T06:34:31.952Z,79.77
2017-06-08T06:34:57.394Z,79.49
2017-06-08T06:35:22.863Z,79.39
2017-06-08T06:35:48.325Z,79.77
2017-06-08T06:36:13.787Z,79.77
2017-06-08T06:36:39.263Z,79.77
2017-06-08T06:37:04.724Z,79.39
2017-06-08T06:37:30.178Z,79.49
2017-06-08T06:37:55.634Z,79.58
2017-06-08T06:38:21.118Z,79.58
2017-06-08T06:38:46.579Z,79.2
2017-06-08T06:39:12.037Z,79.2
2017-06-08T06:39:37.499Z,79
2017-06-08T06:40:02.968Z,79.24
2017-06-08T06:40:28.433Z,79.39
2017-06-08T06:40:53.915Z,79.33
2017-06-08T06:41:19.377Z,79.52
2017-06-08T06:41:44.877Z,78.76
2017-06-08T06:42:10.360Z,78.76
2017-06-08T06:42:35.864Z,78.76
2017-06-08T06:43:01.347Z,78.28
2017-06-08T06:43:26.841Z,78.19
2017-06-08T06:43:52.320Z,77.7
2017-06-08T06:44:17.786Z,77.99
2017-06-08T06:44:43.285Z,77.61
2017-06-08T06:45:08.777Z,77.51
2017-06-08T06:45:34.251Z,77.7
2017-06-08T06:45:59.747Z,77.04
2017-06-08T06:46:25.221Z,77.04
2017-06-08T06:46:50.692Z,76.84
2017-06-08T06:47:16.163Z,76.65
2017-06-08T06:47:41.643Z,76.65
2017-06-08T06:48:07.140Z,76.56
2017-06-08T06:48:32.629Z,76.94
2017-06-08T06:48:58.108Z,76.84
2017-06-08T06:49:23.586Z,76.94
2017-06-08T06:49:49.066Z,77.04
2017-06-08T06:50:14.531Z,76.46
2017-06-08T06:50:39.999Z,76.46
2017-06-08T06:51:05.512Z,76.37
2017-06-08T06:51:31.014Z,76.84
2017-06-08T06:51:56.512Z,76.84
2017-06-08T06:52:21.997Z,76.84
2017-06-08T06:52:47.462Z,76.94
2017-06-08T06:53:12.959Z,76.84
2017-06-08T06:53:38.448Z,76.94
2017-06-08T06:54:03.918Z,76.94
2017-06-08T06:54:29.402Z,77.04
2017-06-08T06:54:54.893Z,77.04
2017-06-08T06:55:20.370Z,76.46
2017-06-08T06:55:45.840Z,76.46
2017-06-08T06:56:11.314Z,76.46
2017-06-08T06:56:36.794Z,76.65
2017-06-08T06:57:02.278Z,76.46
2017-06-08T06:57:27.764Z,76.65
2017-06-08T06:57:53.255Z,76.56
2017-06-08T06:58:18.732Z,76.08
2017-06-08T06:58:44.216Z,76.18
2017-06-08T06:59:09.708Z,76.18
2017-06-08T06:59:35.189Z,76.08
2017-06-08T07:00:00.697Z,76.18
2017-06-08T07:00:26.146Z,76.08
2017-06-08T07:00:51.611Z,75.98
2017-06-08T07:01:17.090Z,76.27
2017-06-08T07:01:42.581Z,76.27
2017-06-08T07:02:08.052Z,76.27
2017-06-08T07:02:33.540Z,76.18
2017-06-08T07:02:59.047Z,76.18
2017-06-08T07:03:24.531Z,76.37
2017-06-08T07:03:50.022Z,76.46
2017-06-08T07:04:15.527Z,76.37
2017-06-08T07:04:40.988Z,76.75
2017-06-08T07:05:06.471Z,76.18
2017-06-08T07:05:31.960Z,76.37
2017-06-08T07:05:57.445Z,76.37
2017-06-08T07:06:22.923Z,76.46
2017-06-08T07:06:48.436Z,76.46
2017-06-08T07:07:13.900Z,76.46
2017-06-08T07:07:39.378Z,76.18
2017-06-08T07:08:04.867Z,76.18
2017-06-08T07:08:30.331Z,75.98
2017-06-08T07:08:55.791Z,76.27
2017-06-08T07:09:21.268Z,76.27
2017-06-08T07:09:46.754Z,76.27
2017-06-08T07:10:12.259Z,76.75
2017-06-08T07:10:37.753Z,76.27
2017-06-08T07:11:03.258Z,75.89
2017-06-08T07:11:28.747Z,76.27
2017-06-08T07:11:54.211Z,76.18
2017-06-08T07:12:19.683Z,76.18
2017-06-08T07:12:45.163Z,76.18
2017-06-08T07:13:10.648Z,76.37
2017-06-08T07:13:36.099Z,75.79
2017-06-08T07:14:01.586Z,76.37
2017-06-08T07:14:27.047Z,75.98
2017-06-08T07:14:52.510Z,75.79
2017-06-08T07:15:17.994Z,75.79
2017-06-08T07:15:43.479Z,76.08
2017-06-08T07:16:08.961Z,76.18
2017-06-08T07:16:34.435Z,76.08
2017-06-08T07:16:59.929Z,75.79
2017-06-08T07:17:25.396Z,75.6
2017-06-08T07:17:50.859Z,75.7
2017-06-08T07:18:16.331Z,75.79
2017-06-08T07:18:41.819Z,75.79
2017-06-08T07:19:07.294Z,76.08
2017-06-08T07:19:32.763Z,76.27
2017-06-08T07:19:58.248Z,76.08
2017-06-08T07:20:23.704Z,75.79
2017-06-08T07:20:49.187Z,75.6
2017-06-08T07:21:14.679Z,75.7
2017-06-08T07:21:40.158Z,75.7
2017-06-08T07:22:05.657Z,75.79
2017-06-08T07:22:31.138Z,75.7
2017-06-08T07:22:56.639Z,75.7
2017-06-08T07:23:22.093Z,75.64
2017-06-08T07:23:47.570Z,75.6
2017-06-08T07:24:13.049Z,74.93
2017-06-08T07:24:38.527Z,74.97
2017-06-08T07:25:03.981Z,74.68
2017-06-08T07:25:29.469Z,75.02
2017-06-08T07:25:54.953Z,75.02
2017-06-08T07:26:20.422Z,74.74
2017-06-08T07:26:45.901Z,75.12
2017-06-08T07:27:11.385Z,74.65
2017-06-08T07:27:36.859Z,74.49
2017-06-08T07:28:02.347Z,74.45
2017-06-08T07:28:27.835Z,74.74
2017-06-08T07:28:53.287Z,75.07
2017-06-08T07:29:18.775Z,74.45
2017-06-08T07:29:44.256Z,74.84
2017-06-08T07:30:09.747Z,74.97
2017-06-08T07:30:35.225Z,74.93
2017-06-08T07:31:00.692Z,74.87
2017-06-08T07:31:26.152Z,75.07
2017-06-08T07:31:51.660Z,74.77
2017-06-08T07:32:17.142Z,74.68
2017-06-08T07:32:42.634Z,74.77
2017-06-08T07:33:08.118Z,75.07
2017-06-08T07:33:33.581Z,74.4
2017-06-08T07:33:59.058Z,74.11
2017-06-08T07:34:24.557Z,74.58
2017-06-08T07:34:50.031Z,74.4
2017-06-08T07:35:15.520Z,74.2
2017-06-08T07:35:40.997Z,74.01
2017-06-08T07:36:06.457Z,74.2
2017-06-08T07:36:31.939Z,74.11
2017-06-08T07:36:57.421Z,74.2
2017-06-08T07:37:22.886Z,74.11
2017-06-08T07:37:48.353Z,73.72
2017-06-08T07:38:13.840Z,73.91
2017-06-08T07:38:39.336Z,73.82
2017-06-08T07:39:04.812Z,73.82
2017-06-08T07:39:30.310Z,73.91
2017-06-08T07:39:55.789Z,73.86
2017-06-08T07:40:21.279Z,73.47
2017-06-08T07:40:46.736Z,73.54
2017-06-08T07:41:12.223Z,72.99
2017-06-08T07:41:37.672Z,72.9
2017-06-08T07:42:03.133Z,72.9
2017-06-08T07:42:28.584Z,72.8
2017-06-08T07:42:54.058Z,73.44
2017-06-08T07:43:19.521Z,72.71
2017-06-08T07:43:45.012Z,72.77
2017-06-08T07:44:10.470Z,72.8
2017-06-08T07:44:35.962Z,72.71
2017-06-08T07:45:01.460Z,72.23
2017-06-08T07:45:26.953Z,71.66
2017-06-08T07:45:52.412Z,72.23
2017-06-08T07:46:17.871Z,72.38
2017-06-08T07:46:43.340Z,72.71
2017-06-08T07:47:08.817Z,72.67
2017-06-08T07:47:34.292Z,72.58
2017-06-08T07:47:59.779Z,72.67
2017-06-08T07:48:25.267Z,72.71
2017-06-08T07:48:50.757Z,72.71
2017-06-08T07:49:16.223Z,72.9
2017-06-08T07:49:41.708Z,72.71
2017-06-08T07:50:07.179Z,72.52
2017-06-08T07:50:32.659Z,72.42
2017-06-08T07:50:58.127Z,72.52
2017-06-08T07:51:23.623Z,71.94
2017-06-08T07:51:49.103Z,71.66
2017-06-08T07:52:14.604Z,71.84
2017-06-08T07:52:40.085Z,71.75
2017-06-08T07:53:05.558Z,71.94
2017-06-08T07:53:31.039Z,71.75
2017-06-08T07:53:56.530Z,71.37
2017-06-08T07:54:22.028Z,71.17
2017-06-08T07:54:47.493Z,71.27
2017-06-08T07:55:12.975Z,71.37
2017-06-08T07:55:38.451Z,71.56
2017-06-08T07:56:03.936Z,71.56
2017-06-08T07:56:29.416Z,71.46
2017-06-08T07:56:54.905Z,71.46
2017-06-08T07:57:20.378Z,71.46
2017-06-08T07:57:45.879Z,71.94
2017-06-08T07:58:11.348Z,71.75
2017-06-08T07:58:36.833Z,72.13
2017-06-08T07:59:02.284Z,71.75
2017-06-08T07:59:27.767Z,71.66
2017-06-08T07:59:53.256Z,71.75
2017-06-08T08:00:18.726Z,71.75
2017-06-08T08:00:44.221Z,71.46
2017-06-08T08:01:09.706Z,71.46
2017-06-08T08:01:35.198Z,71.37
2017-06-08T08:02:00.684Z,71.56
2017-06-08T08:02:26.174Z,71.37
2017-06-08T08:02:51.708Z,71.27
2017-06-08T08:03:17.169Z,71.56
2017-06-08T08:03:42.655Z,71.27
2017-06-08T08:04:08.103Z,71.37
2017-06-08T08:04:33.587Z,71.08
2017-06-08T08:04:59.059Z,70.6
2017-06-08T08:05:24.548Z,70.98
2017-06-08T08:05:50.024Z,71.27
2017-06-08T08:06:15.513Z,71.27
2017-06-08T08:06:40.965Z,71.17
2017-06-08T08:07:06.410Z,71.46
2017-06-08T08:07:31.877Z,71.66
2017-06-08T08:07:57.356Z,71.46
2017-06-08T08:08:22.834Z,71.37
2017-06-08T08:08:48.320Z,71.17
2017-06-08T08:09:13.858Z,71.27
2017-06-08T08:09:39.346Z,71.17
2017-06-08T08:10:04.803Z,71.17
2017-06-08T08:10:30.286Z,71.27
2017-06-08T08:10:55.761Z,70.98
2017-06-08T08:11:21.238Z,71.37
2017-06-08T08:11:46.705Z,71.27
2017-06-08T08:12:12.177Z,71.37
2017-06-08T08:12:37.619Z,71.27
2017-06-08T08:13:03.092Z,71.17
2017-06-08T08:13:28.529Z,70.79
2017-06-08T08:13:54.017Z,70.7
2017-06-08T08:14:19.513Z,70.35
2017-06-08T08:14:44.976Z,70.31
2017-06-08T08:15:10.460Z,70.21
2017-06-08T08:15:35.935Z,70.31
2017-06-08T08:16:01.413Z,70.5
2017-06-08T08:16:26.892Z,70.41
2017-06-08T08:16:52.368Z,70.7
2017-06-08T08:17:17.858Z,70.41
2017-06-08T08:17:43.339Z,70.41
2017-06-08T08:18:08.799Z,70.31
2017-06-08T08:18:34.292Z,70.31
2017-06-08T08:18:59.764Z,70.31
2017-06-08T08:19:25.255Z,70.31
2017-06-08T08:19:50.735Z,70.98
2017-06-08T08:20:16.222Z,70.5
2017-06-08T08:20:41.748Z,71.02
2017-06-08T08:21:07.232Z,70.12
2017-06-08T08:21:32.716Z,70.35
2017-06-08T08:21:58.193Z,70.54
2017-06-08T08:22:23.664Z,70.54
2017-06-08T08:22:49.121Z,70.54
2017-06-08T08:23:14.600Z,70.54
2017-06-08T08:23:40.072Z,70.35
2017-06-08T08:24:05.561Z,70.35
2017-06-08T08:24:31.025Z,70.25
2017-06-08T08:24:56.502Z,70.54
2017-06-08T08:25:21.991Z,70.44
2017-06-08T08:25:47.476Z,70.15
2017-06-08T08:26:12.966Z,70.15
2017-06-08T08:26:38.447Z,69.77
2017-06-08T08:27:03.908Z,69.87
2017-06-08T08:27:29.405Z,69.96
2017-06-08T08:27:54.886Z,69.58
2017-06-08T08:28:20.349Z,69.71
2017-06-08T08:28:45.837Z,69.42
2017-06-08T08:29:11.315Z,69.23
2017-06-08T08:29:36.816Z,69.9
2017-06-08T08:30:02.282Z,69.42
2017-06-08T08:30:27.744Z,69.33
2017-06-08T08:30:53.233Z,69.13
2017-06-08T08:31:18.723Z,69.42
2017-06-08T08:31:44.192Z,69.04
2017-06-08T08:32:09.679Z,69.13
2017-06-08T08:32:35.186Z,68.85
2017-06-08T08:33:00.667Z,69.04
2017-06-08T08:33:26.159Z,69.42
2017-06-08T08:33:51.654Z,69.52
2017-06-08T08:34:17.139Z,68.95
2017-06-08T08:34:42.644Z,68.59
2017-06-08T08:35:08.111Z,68.3
2017-06-08T08:35:33.587Z,68.21
2017-06-08T08:35:59.069Z,67.92
2017-06-08T08:36:24.514Z,67.54
2017-06-08T08:36:50.019Z,66.86
2017-06-08T08:37:15.497Z,67.44
2017-06-08T08:37:40.972Z,67.16
2017-06-08T08:38:06.467Z,67.44
2017-06-08T08:38:31.946Z,67.63
2017-06-08T08:38:57.413Z,66.71
2017-06-08T08:39:22.893Z,66.42
2017-06-08T08:39:48.338Z,66.61
2017-06-08T08:40:13.809Z,66.42
2017-06-08T08:40:39.264Z,66.23
2017-06-08T08:41:04.760Z,66.23
2017-06-08T08:41:30.248Z,66.33
2017-06-08T08:41:55.740Z,66.42
2017-06-08T08:42:21.198Z,66.61
2017-06-08T08:42:46.675Z,66.33
2017-06-08T08:43:12.162Z,66.16
2017-06-08T08:43:37.665Z,65.97
2017-06-08T08:44:03.114Z,66.46
2017-06-08T08:44:28.588Z,65.97
2017-06-08T08:44:54.072Z,65.97
2017-06-08T08:45:19.561Z,66.16
2017-06-08T08:45:45.036Z,65.78
2017-06-08T08:46:10.513Z,65.69
2017-06-08T08:46:36.017Z,65.69
2017-06-08T08:47:01.462Z,65.59
2017-06-08T08:47:26.940Z,64.92
2017-06-08T08:47:52.413Z,64.34
2017-06-08T08:48:17.899Z,63.79
2017-06-08T08:48:43.395Z,63.6
2017-06-08T08:49:08.863Z,63.7
2017-06-08T08:49:34.348Z,64.09
2017-06-08T08:49:59.796Z,63.89
2017-06-08T08:50:25.285Z,64.28
2017-06-08T08:50:50.740Z,63.6
2017-06-08T08:51:16.226Z,63.51
2017-06-08T08:51:41.702Z,62.93
2017-06-08T08:52:07.181Z,62.84
2017-06-08T08:52:32.628Z,62.64
2017-06-08T08:52:58.095Z,62.55
2017-06-08T08:53:23.551Z,62.26
2017-06-08T08:53:49.034Z,62.45
2017-06-08T08:54:14.489Z,62.35
2017-06-08T08:54:39.987Z,62.55
2017-06-08T08:55:05.487Z,61.87
2017-06-08T08:55:30.984Z,61.61
2017-06-08T08:55:56.468Z,61.87
2017-06-08T08:56:21.930Z,61.87
2017-06-08T08:56:47.404Z,61.43
2017-06-08T08:57:12.875Z,61.52
2017-06-08T08:57:38.349Z,62
2017-06-08T08:58:03.849Z,61.43
2017-06-08T08:58:29.332Z,61.61
2017-06-08T08:58:54.814Z,61.61
2017-06-08T08:59:20.286Z,61.61
2017-06-08T08:59:45.759Z,61.33
2017-06-08T09:00:11.263Z,61.04
2017-06-08T09:00:36.704Z,61.43
2017-06-08T09:01:02.192Z,61.61
2017-06-08T09:01:27.644Z,61.81
2017-06-08T09:01:53.133Z,61.14
2017-06-08T09:02:18.599Z,61.52
2017-06-08T09:02:44.066Z,60.75
2017-06-08T09:03:09.537Z,61.04
2017-06-08T09:03:35.010Z,60.88
2017-06-08T09:04:00.481Z,61.14
2017-06-08T09:04:25.951Z,60.88
2017-06-08T09:04:51.446Z,60.78
2017-06-08T09:05:16.940Z,59.53
2017-06-08T09:05:42.402Z,58.86
2017-06-08T09:06:07.889Z,59.05
2017-06-08T09:06:33.373Z,59.53
2017-06-08T09:06:58.863Z,59.92
2017-06-08T09:07:24.353Z,59.92
2017-06-08T09:07:49.848Z,59.92
2017-06-08T09:08:15.326Z,59.63
2017-06-08T09:08:40.823Z,59.63
2017-06-08T09:09:06.324Z,58.95
2017-06-08T09:09:31.772Z,59.05
2017-06-08T09:09:57.267Z,58.76
2017-06-08T09:10:22.752Z,58.47
2017-06-08T09:10:48.238Z,58.86
2017-06-08T09:11:13.706Z,58.86
2017-06-08T09:11:39.181Z,58.67
2017-06-08T09:12:04.680Z,58.76
2017-06-08T09:12:30.147Z,58.28
2017-06-08T09:12:55.654Z,58.31
2017-06-08T09:13:21.106Z,58.47
2017-06-08T09:13:46.594Z,58.67
2017-06-08T09:14:12.048Z,58.28
2017-06-08T09:14:37.546Z,58.18
2017-06-08T09:15:03.035Z,57.92
2017-06-08T09:15:28.516Z,57.83
2017-06-08T09:15:53.993Z,58.02
2017-06-08T09:16:19.503Z,57.83
2017-06-08T09:16:44.974Z,57.92
2017-06-08T09:17:10.441Z,57.92
2017-06-08T09:17:35.930Z,57.92
2017-06-08T09:18:01.407Z,58.4
2017-06-08T09:18:26.883Z,58.02
2017-06-08T09:18:52.380Z,58.02
2017-06-08T09:19:17.853Z,58.4
2017-06-08T09:19:43.346Z,57.92
2017-06-08T09:20:08.840Z,57.73
2017-06-08T09:20:34.312Z,57.25
2017-06-08T09:20:59.779Z,57.25
2017-06-08T09:21:25.269Z,56.87
2017-06-08T09:21:50.784Z,56.67
2017-06-08T09:22:16.277Z,56.77
2017-06-08T09:22:41.762Z,57.15
2017-06-08T09:23:07.232Z,57.54
2017-06-08T09:23:32.769Z,57.35
2017-06-08T09:23:58.227Z,57.45
2017-06-08T09:24:23.711Z,57.57
2017-06-08T09:24:49.207Z,57.18
2017-06-08T09:25:14.686Z,57.37
2017-06-08T09:25:40.176Z,56.99
2017-06-08T09:26:05.667Z,57.18
2017-06-08T09:26:31.159Z,57.47
2017-06-08T09:26:56.639Z,57.47
2017-06-08T09:27:22.132Z,57.37
2017-06-08T09:27:47.625Z,57.09
2017-06-08T09:28:13.100Z,56.99
2017-06-08T09:28:38.564Z,57.09
2017-06-08T09:29:04.023Z,57.18
2017-06-08T09:29:29.534Z,56.7
2017-06-08T09:29:54.982Z,57.18
2017-06-08T09:30:20.493Z,57.18
2017-06-08T09:30:45.972Z,57.18
2017-06-08T09:31:11.438Z,57.18
2017-06-08T09:31:36.899Z,57.21
2017-06-08T09:32:02.388Z,57.5
2017-06-08T09:32:27.862Z,57.4
2017-06-08T09:32:53.339Z,57.31
2017-06-08T09:33:18.814Z,57.4
2017-06-08T09:33:44.283Z,57.5
2017-06-08T09:34:09.750Z,57.5
2017-06-08T09:34:35.223Z,57.6
2017-06-08T09:35:00.704Z,57.31
2017-06-08T09:35:26.187Z,57.69
2017-06-08T09:35:51.666Z,57.12
2017-06-08T09:36:17.133Z,56.82
2017-06-08T09:36:42.633Z,56.35
2017-06-08T09:37:08.111Z,55.6
2017-06-08T09:37:33.588Z,55.19
2017-06-08T09:37:59.112Z,54.71
2017-06-08T09:38:24.598Z,54.44
2017-06-08T09:38:50.104Z,54.52
2017-06-08T09:39:15.568Z,54.8
2017-06-08T09:39:41.095Z,53.84
2017-06-08T09:40:06.558Z,53.77
2017-06-08T09:40:32.007Z,54.44
2017-06-08T09:40:57.479Z,54.83
2017-06-08T09:41:22.969Z,54.83
2017-06-08T09:41:48.465Z,54.64
2017-06-08T09:42:13.948Z,54.25
2017-06-08T09:42:39.379Z,54.16
2017-06-08T09:43:04.868Z,53.87
2017-06-08T09:43:30.345Z,53.29
2017-06-08T09:43:55.853Z,52.71
2017-06-08T09:44:21.365Z,52.04
2017-06-08T09:44:46.844Z,52.04
2017-06-08T09:45:12.332Z,52.13
2017-06-08T09:45:37.822Z,51.84
2017-06-08T09:46:03.258Z,51.46
2017-06-08T09:46:28.726Z,51.75
2017-06-08T09:46:54.197Z,51.84
2017-06-08T09:47:19.720Z,52.42
2017-06-08T09:47:45.190Z,52.42
2017-06-08T09:48:10.656Z,52.42
2017-06-08T09:48:36.120Z,52.71
2017-06-08T09:49:01.594Z,52.71
2017-06-08T09:49:27.049Z,53.29
2017-06-08T09:49:52.544Z,53.09
2017-06-08T09:50:18.037Z,52.61
2017-06-08T09:50:43.500Z,52.83
2017-06-08T09:51:08.990Z,52.42
2017-06-08T09:51:34.436Z,52.42
2017-06-08T09:51:59.910Z,51.75
2017-06-08T09:52:25.392Z,51.75
2017-06-08T09:52:50.892Z,52.42
2017-06-08T09:53:16.377Z,52.33
2017-06-08T09:53:41.820Z,52.71
2017-06-08T09:54:07.299Z,52.91
2017-06-08T09:54:32.782Z,52.71
2017-06-08T09:54:58.284Z,52.71
2017-06-08T09:55:23.771Z,52.71
2017-06-08T09:55:49.247Z,52.91
2017-06-08T09:56:14.713Z,53.39
2017-06-08T09:56:40.199Z,53.67
2017-06-08T09:57:05.678Z,53.29
2017-06-08T09:57:31.165Z,53.67
2017-06-08T09:57:56.646Z,53.58
2017-06-08T09:58:22.132Z,53.29
2017-06-08T09:58:47.579Z,53.58
2017-06-08T09:59:13.079Z,52.93
2017-06-08T09:59:38.562Z,52.73
2017-06-08T10:00:04.046Z,53.39
2017-06-08T10:00:29.520Z,53.13
2017-06-08T10:00:55.014Z,52.64
2017-06-08T10:01:20.455Z,52.83
2017-06-08T10:01:45.924Z,52.73
2017-06-08T10:02:11.392Z,52.83
2017-06-08T10:02:36.858Z,52.25
2017-06-08T10:03:02.343Z,52.06
2017-06-08T10:03:27.822Z,52.16
2017-06-08T10:03:53.293Z,51.68
2017-06-08T10:04:18.764Z,51.29
2017-06-08T10:04:44.227Z,50.81
2017-06-08T10:05:09.721Z,50.32
2017-06-08T10:05:35.190Z,50.32
2017-06-08T10:06:00.659Z,50.32
2017-06-08T10:06:26.121Z,50.13
2017-06-08T10:06:51.609Z,51
2017-06-08T10:07:17.077Z,50.42
2017-06-08T10:07:42.571Z,50.71
2017-06-08T10:08:08.035Z,50.42
2017-06-08T10:08:33.541Z,50.26
2017-06-08T10:08:59.006Z,50.26
2017-06-08T10:09:24.480Z,50.42
2017-06-08T10:09:50.003Z,50.23
2017-06-08T10:10:15.471Z,50.71
2017-06-08T10:10:40.938Z,50.84
2017-06-08T10:11:06.402Z,50.54
2017-06-08T10:11:31.884Z,50.64
2017-06-08T10:11:57.333Z,50.54
2017-06-08T10:12:22.799Z,50.84
2017-06-08T10:12:48.283Z,50.16
2017-06-08T10:13:13.750Z,49.87
2017-06-08T10:13:39.198Z,49.19
2017-06-08T10:14:04.690Z,49.29
2017-06-08T10:14:30.158Z,49.19
2017-06-08T10:14:55.678Z,49
2017-06-08T10:15:21.139Z,48.9
2017-06-08T10:15:46.629Z,48.9